EIKY/KIR METAR and TAF weather

Enter ICAO airport designator
Station Type Date Time Source
EIKY METAR 2018/12/10 19:30 UTC NOAA

EIKY 101930Z 18013KT CAVOK 11/09 Q1022


Station Type Date Time Source
EIKY Decoded METAR 2018/12/10 19:30 UTC NOAA

Station name not available
Dec 10, 2018 - 02:30 PM EST / 2018.12.10 1930 UTC
Wind: from the S (180 degrees) at 15 MPH (13 KT):0
Visibility: greater than 7 mile(s):0
Temperature: 51 F (11 C)
Dew Point: 48 F (9 C)
Relative Humidity: 87%
Pressure (altimeter): 30.18 in. Hg (1022 hPa)
ob: EIKY 101930Z 18013KT CAVOK 11/09 Q1022
cycle: 19

Station Type Date Time Source
EIKY TAF UTC NOAA

Error!


Example: see airport list